Time;durP1;ratioP1;P1;durP2;ratioP2;P2;SDS_P1;SDS_P2;PMS_P1;PMS_P2;Temp;Humidity;BMP_temperature;BMP_pressure;BME280_temperature;BME280_humidity;BME280_pressure;Samples;Min_cycle;Max_cycle;Signal;HPM_P1;HPM_P2
2024/02/11 00:01:21;;;;;;;;;40.67;33.00;;;;;10.70;100.00;97589.59;6278470;20;3601372;-49
2024/02/11 00:03:50;;;;;;;;;40.00;33.00;;;;;10.58;100.00;97593.44;6276581;20;3603492;-48
2024/02/11 00:06:20;;;;;;;;;45.33;35.33;;;;;10.91;100.00;97589.38;6311255;20;2855479;-50
2024/02/11 00:08:51;;;;;;;;;43.33;33.67;;;;;10.89;100.00;97586.00;6312891;20;2849294;-47
2024/02/11 00:11:21;;;;;;;;;39.33;33.00;;;;;10.89;100.00;97593.19;6313663;20;3627379;-49
2024/02/11 00:13:50;;;;;;;;;68.67;49.67;;;;;10.63;100.00;97590.34;6279119;20;3644059;-47
2024/02/11 00:16:20;;;;;;;;;61.00;43.00;;;;;10.72;100.00;97584.94;6276668;20;2886739;-48
2024/02/11 00:18:49;;;;;;;;;65.33;47.00;;;;;10.86;100.00;97588.13;6308223;20;3634739;-47
2024/02/11 00:21:19;;;;;;;;;58.67;44.00;;;;;10.90;100.00;97593.06;6276952;20;3634639;-47
2024/02/11 00:23:49;;;;;;;;;55.33;41.33;;;;;11.26;100.00;97586.94;6313417;20;3630555;-49
2024/02/11 00:26:18;;;;;;;;;54.67;41.00;;;;;11.17;100.00;97602.13;6280803;20;3648169;-49
2024/02/11 00:28:47;;;;;;;;;46.00;34.00;;;;;10.92;100.00;97598.28;6312032;20;3489872;-50
2024/02/11 00:31:17;;;;;;;;;43.00;34.00;;;;;10.67;100.00;97603.31;6307865;20;2862971;-52
2024/02/11 00:33:46;;;;;;;;;44.25;32.75;;;;;10.38;100.00;97610.63;6317061;20;3625349;-49
2024/02/11 00:36:16;;;;;;;;;39.67;32.33;;;;;10.39;100.00;97609.63;6310732;20;3617052;-49
2024/02/11 00:38:44;;;;;;;;;39.33;32.67;;;;;10.32;100.00;97615.56;6283778;20;3602769;-50
2024/02/11 00:41:14;;;;;;;;;64.00;46.00;;;;;10.82;100.00;97605.50;6280064;20;3657565;-50
2024/02/11 00:43:44;;;;;;;;;52.67;42.00;;;;;10.73;100.00;97602.72;6276824;20;2862775;-49
2024/02/11 00:46:15;;;;;;;;;49.33;41.00;;;;;10.63;100.00;97604.59;6307379;20;2864987;-50
2024/02/11 00:48:47;;;;;;;;;43.00;32.25;;;;;10.87;100.00;97597.88;6311613;20;3637766;-48
2024/02/11 00:51:19;;;;;;;;;33.33;30.33;;;;;10.59;100.00;97600.53;6311986;20;3587858;-52
2024/02/11 00:53:48;;;;;;;;;33.67;31.67;;;;;10.64;100.00;97597.41;6274939;20;2864929;-51
2024/02/11 00:56:19;;;;;;;;;30.00;28.33;;;;;10.86;100.00;97596.19;6312631;20;3593043;-48
2024/02/11 00:58:49;;;;;;;;;30.00;29.00;;;;;10.76;100.00;97604.28;6278293;20;2844061;-47
2024/02/11 01:01:19;;;;;;;;;30.67;29.00;;;;;11.05;100.00;97601.47;6280051;20;3566952;-50
2024/02/11 01:03:56;;;;;;;;;34.33;26.33;;;;;10.94;100.00;97593.59;6310144;20;3612876;-47
2024/02/11 01:06:26;;;;;;;;;30.50;27.50;;;;;10.98;100.00;97589.66;6280050;20;3539855;-50
2024/02/11 01:08:55;;;;;;;;;27.33;26.00;;;;;10.98;100.00;97595.03;6309689;20;3598173;-47
2024/02/11 01:11:24;;;;;;;;;33.33;27.67;;;;;11.19;100.00;97587.56;6278734;20;2855590;-48
2024/02/11 01:13:53;;;;;;;;;29.33;28.00;;;;;11.00;100.00;97587.63;6309460;20;3583652;-47
2024/02/11 01:16:22;;;;;;;;;34.33;29.67;;;;;11.06;100.00;97581.69;6275757;20;3601474;-49
2024/02/11 01:18:50;;;;;;;;;33.00;29.67;;;;;10.82;100.00;97574.19;6277511;20;3583660;-48
2024/02/11 01:21:20;;;;;;;;;34.00;29.33;;;;;10.95;100.00;97574.69;6280657;20;3599224;-51
2024/02/11 01:23:49;;;;;;;;;27.00;25.33;;;;;11.05;100.00;97569.22;6278854;20;2853520;-50
2024/02/11 01:26:18;;;;;;;;;26.00;26.00;;;;;10.99;100.00;97567.16;6311253;20;3578395;-49
2024/02/11 01:28:47;;;;;;;;;29.00;26.00;;;;;10.84;100.00;97571.31;6275958;20;3594002;-51
2024/02/11 01:31:16;;;;;;;;;32.33;29.00;;;;;10.54;100.00;97559.88;6311223;20;3594061;-47
2024/02/11 01:33:45;;;;;;;;;31.00;28.33;;;;;10.46;100.00;97559.75;6273245;20;3591941;-49
2024/02/11 01:36:14;;;;;;;;;29.67;26.67;;;;;10.64;100.00;97566.06;6311091;20;3581594;-49
2024/02/11 01:38:44;;;;;;;;;27.33;25.67;;;;;10.73;100.00;97559.78;6274154;20;2844126;-46
2024/02/11 01:41:13;;;;;;;;;26.00;26.00;;;;;10.67;100.00;97570.28;6309238;20;3598245;-47
2024/02/11 01:43:42;;;;;;;;;30.00;26.67;;;;;10.51;100.00;97557.50;6277537;20;2860821;-46
2024/02/11 01:46:11;;;;;;;;;28.33;25.00;;;;;10.59;100.00;97559.44;6311440;20;3595050;-50
2024/02/11 01:48:41;;;;;;;;;30.67;28.33;;;;;10.48;100.00;97555.09;6275853;20;2836772;-49
2024/02/11 01:51:11;;;;;;;;;25.33;23.33;;;;;10.21;100.00;97553.16;6302363;20;2835673;-51
2024/02/11 01:53:41;;;;;;;;;28.33;27.00;;;;;10.40;100.00;97555.81;6303418;20;2861807;-49
2024/02/11 01:56:11;;;;;;;;;32.00;26.00;;;;;10.44;100.00;97553.69;6304098;20;3604463;-48
2024/02/11 01:58:42;;;;;;;;;24.00;22.00;;;;;10.43;100.00;97550.16;6304354;20;2843023;-50
2024/02/11 02:01:11;;;;;;;;;28.00;25.00;;;;;10.51;100.00;97538.69;6273839;20;3593076;-47
2024/02/11 02:03:39;;;;;;;;;25.00;21.00;;;;;10.38;100.00;97527.47;6267054;20;2500269;-51
2024/02/11 02:06:11;;;;;;;;;26.67;23.33;;;;;9.91;100.00;97519.34;6270504;20;2854547;-48
2024/02/11 02:08:40;;;;;;;;;28.33;26.00;;;;;9.88;100.00;97518.66;6305222;20;3598212;-47
2024/02/11 02:11:10;;;;;;;;;35.00;32.00;;;;;9.78;100.00;97506.25;6275336;20;3606608;-48
2024/02/11 02:13:39;;;;;;;;;32.67;30.00;;;;;9.79;100.00;97499.88;6307236;20;3587750;-48
2024/02/11 02:16:08;;;;;;;;;25.50;25.50;;;;;10.01;100.00;97504.09;6272701;20;2856528;-48
2024/02/11 02:18:38;;;;;;;;;33.33;28.67;;;;;10.15;100.00;97495.59;6274393;20;2847782;-47
2024/02/11 02:21:09;;;;;;;;;31.33;26.00;;;;;10.01;100.00;97488.03;6308522;20;3611286;-51
2024/02/11 02:23:37;;;;;;;;;16.00;16.00;;;;;9.81;100.00;97485.34;6274759;20;3562745;-49
2024/02/11 02:26:07;;;;;;;;;29.33;29.33;;;;;9.95;100.00;97483.22;6271002;20;2841738;-50
2024/02/11 02:28:37;;;;;;;;;33.33;27.00;;;;;9.91;100.00;97476.47;6306263;20;3603419;-49
2024/02/11 02:31:07;;;;;;;;;24.33;23.67;;;;;9.98;100.00;97478.44;6276163;20;2848168;-49
2024/02/11 02:33:36;;;;;;;;;32.33;28.00;;;;;10.10;100.00;97476.41;6308421;20;3601333;-48
2024/02/11 02:36:06;;;;;;;;;26.67;25.33;;;;;10.00;100.00;97480.94;6270219;20;2853574;-48
2024/02/11 02:38:35;;;;;;;;;28.00;25.00;;;;;10.09;100.00;97485.44;6306760;20;3598581;-47
2024/02/11 02:41:04;;;;;;;;;26.00;22.50;;;;;9.87;100.00;97481.25;6272403;20;2842104;-47
2024/02/11 02:43:34;;;;;;;;;31.33;28.00;;;;;10.14;100.00;97476.94;6273496;20;2849307;-46
2024/02/11 02:46:07;;;;;;;;;27.00;25.67;;;;;10.10;100.00;97471.03;6306382;20;3601408;-48
2024/02/11 02:48:36;;;;;;;;;34.33;29.67;;;;;10.15;100.00;97478.66;6275598;20;2846197;-48
2024/02/11 02:51:06;;;;;;;;;36.00;28.00;;;;;10.25;100.00;97476.78;6304556;20;3618965;-48
2024/02/11 02:53:34;;;;;;;;;33.67;28.67;;;;;10.20;100.00;97482.59;6309418;20;3589859;-51
2024/02/11 02:56:04;;;;;;;;;28.33;27.33;;;;;10.13;100.00;97481.47;6275416;20;2855565;-48
2024/02/11 02:58:33;;;;;;;;;29.00;26.00;;;;;10.29;100.00;97481.75;6305167;20;3596115;-47
2024/02/11 03:01:04;;;;;;;;;13.50;8.00;;;;;10.01;100.00;97482.66;6270568;20;2781615;-50
2024/02/11 03:03:33;;;;;;;;;26.00;24.00;;;;;10.00;100.00;97472.91;6276649;20;2838884;-47
2024/02/11 03:06:03;;;;;;;;;26.33;25.00;;;;;10.19;100.00;97478.22;6273876;20;2856722;-46
2024/02/11 03:08:31;;;;;;;;;24.33;23.00;;;;;10.43;100.00;97477.72;6309097;20;3594045;-46
2024/02/11 03:11:01;;;;;;;;;26.33;24.00;;;;;10.12;100.00;97469.06;6273121;20;2854426;-47
2024/02/11 03:13:32;;;;;;;;;31.38;26.63;;;;;9.82;100.00;97454.91;6329064;20;3614928;-46
2024/02/11 03:16:01;;;;;;;;;25.00;23.50;;;;;10.16;100.00;97465.09;6269687;20;2858599;-48
2024/02/11 03:18:30;;;;;;;;;26.00;23.00;;;;;10.16;100.00;97457.03;6274114;20;2838891;-48
2024/02/11 03:20:59;;;;;;;;;26.50;25.00;;;;;10.12;100.00;97463.69;6273073;20;2860730;-46
2024/02/11 03:23:29;;;;;;;;;26.00;23.67;;;;;10.04;100.00;97463.59;6273539;20;3597512;-47
2024/02/11 03:25:57;;;;;;;;;26.50;25.00;;;;;10.08;100.00;97462.28;6306319;20;2846229;-46
2024/02/11 03:28:27;;;;;;;;;25.00;25.00;;;;;10.06;100.00;97458.94;6277404;20;2830594;-48
2024/02/11 03:30:57;;;;;;;;;30.33;26.00;;;;;10.12;100.00;97444.94;6275079;20;3613781;-48
2024/02/11 03:33:27;;;;;;;;;26.67;23.00;;;;;9.93;100.00;97447.69;6304133;20;2860674;-47
2024/02/11 03:35:56;;;;;;;;;23.50;23.50;;;;;9.78;100.00;97437.41;6305074;20;2854442;-46
2024/02/11 03:38:25;;;;;;;;;31.00;25.33;;;;;9.77;100.00;97441.09;6277049;20;3609737;-48
2024/02/11 03:40:56;;;;;;;;;24.67;21.33;;;;;10.01;100.00;97439.75;6276329;20;2845242;-48
2024/02/11 03:43:25;;;;;;;;;26.00;21.00;;;;;9.86;100.00;97442.88;6305468;20;3584627;-49
2024/02/11 03:45:54;;;;;;;;;24.00;20.50;;;;;9.81;100.00;97439.81;6273500;20;2846178;-47
2024/02/11 03:48:24;;;;;;;;;28.67;23.33;;;;;9.91;100.00;97428.22;6275171;20;2864981;-47
2024/02/11 03:50:53;;;;;;;;;23.00;20.67;;;;;9.72;100.00;97419.25;6309445;20;3577479;-46
2024/02/11 03:53:22;;;;;;;;;21.00;19.50;;;;;9.82;100.00;97425.44;6306301;20;2840028;-47
2024/02/11 03:55:50;;;;;;;;;23.00;23.00;;;;;9.62;100.00;97410.38;6272136;20;2500239;-47
2024/02/11 03:58:20;;;;;;;;;26.67;26.00;;;;;9.55;100.00;97401.22;6272524;20;2860835;-46
2024/02/11 04:00:49;;;;;;;;;26.50;24.50;;;;;9.53;100.00;97397.84;6306114;20;2839434;-50
2024/02/11 04:03:18;;;;;;;;;26.00;24.00;;;;;9.39;100.00;97386.59;6270814;20;2844047;-49
2024/02/11 04:05:52;;;;;;;;;26.00;22.00;;;;;9.45;100.00;97380.69;6274121;20;2850267;-47
2024/02/11 04:08:21;;;;;;;;;22.50;19.50;;;;;9.61;100.00;97379.19;6271973;20;2500707;-50
2024/02/11 04:10:52;;;;;;;;;26.00;22.50;;;;;9.60;100.00;97377.53;6273083;20;2850284;-46
2024/02/11 04:13:26;;;;;;;;;22.50;21.00;;;;;9.86;100.00;97378.56;6271820;20;2848233;-48
2024/02/11 04:16:05;;;;;;;;;20.00;20.00;;;;;9.53;100.00;97371.06;6270913;20;2831490;-48
2024/02/11 04:18:35;;;;;;;;;21.00;20.00;;;;;9.58;100.00;97377.66;6275975;20;2827430;-51
2024/02/11 04:21:04;;;;;;;;;20.00;20.00;;;;;9.59;100.00;97357.94;6274530;20;2840950;-48
2024/02/11 04:23:33;;;;;;;;;25.00;22.00;;;;;9.62;100.00;97364.84;6271481;20;2848395;-47
2024/02/11 04:26:07;;;;;;;;;20.50;18.00;;;;;9.85;100.00;97354.63;6272857;20;2827395;-47
2024/02/11 04:28:36;;;;;;;;;23.00;19.50;;;;;9.53;100.00;97360.34;6277016;20;2834623;-50
2024/02/11 04:31:08;;;;;;;;;24.50;22.00;;;;;9.59;100.00;97354.41;6280160;20;2844146;-46
2024/02/11 04:33:41;;;;;;;;;21.00;18.00;;;;;9.92;100.00;97349.50;6276900;20;2500281;-49
2024/02/11 04:36:13;;;;;;;;;17.00;17.00;;;;;9.47;100.00;97350.22;6282542;20;2500345;-46
2024/02/11 04:38:41;;;;;;;;;25.00;20.00;;;;;9.73;100.00;97342.38;6277251;20;2500263;-50
2024/02/11 04:41:11;;;;;;;;;31.67;30.33;;;;;9.39;100.00;97341.06;6277918;20;3598162;-49
2024/02/11 04:43:41;;;;;;;;;21.00;18.00;;;;;9.58;100.00;97352.72;6307940;20;2832679;-47
2024/02/11 04:46:09;;;;;;;;;21.50;19.00;;;;;9.59;100.00;97347.22;6280509;20;2837784;-50
2024/02/11 04:48:39;;;;;;;;;35.00;29.67;;;;;9.83;100.00;97349.38;6278606;20;2842047;-50
2024/02/11 04:51:09;;;;;;;;;37.00;32.00;;;;;9.81;100.00;97359.41;6312509;20;3609753;-49
2024/02/11 04:53:39;;;;;;;;;41.00;37.00;;;;;9.84;100.00;97359.09;6279224;20;2659721;-48
2024/02/11 04:56:10;;;;;;;;;53.00;45.00;;;;;9.56;100.00;97365.44;6307868;20;2859653;-51
2024/02/11 04:58:39;;;;;;;;;37.33;32.00;;;;;9.73;100.00;97366.50;6276707;20;3591950;-49
2024/02/11 05:01:09;;;;;;;;;31.67;29.33;;;;;9.66;100.00;97360.84;6274184;20;2857701;-50
2024/02/11 05:03:39;;;;;;;;;21.00;21.00;;;;;9.57;100.00;97362.59;6305050;20;2500405;-48
2024/02/11 05:06:07;;;;;;;;;15.00;13.50;;;;;9.72;100.00;97365.66;6279064;20;2816908;-47
2024/02/11 05:08:38;;;;;;;;;31.50;29.00;;;;;9.51;100.00;97362.34;6280018;20;2842981;-48
2024/02/11 05:11:07;;;;;;;;;30.33;24.33;;;;;9.74;100.00;97362.81;6278986;20;2853521;-46
2024/02/11 05:13:37;;;;;;;;;34.33;32.00;;;;;9.87;100.00;97366.88;6312387;20;3585711;-48
2024/02/11 05:16:08;;;;;;;;;23.00;22.00;;;;;9.64;100.00;97362.88;6275426;20;2841907;-46
2024/02/11 05:18:38;;;;;;;;;21.00;18.00;;;;;9.49;100.00;97364.31;6275736;20;2500266;-48
2024/02/11 05:21:06;;;;;;;;;16.00;16.00;;;;;9.60;100.00;97361.47;6277875;20;2500362;-47
2024/02/11 05:23:36;;;;;;;;;27.50;26.50;;;;;9.70;100.00;97361.44;6275770;20;2500413;-48
2024/02/11 05:26:09;;;;;;;;;38.00;32.00;;;;;9.81;100.00;97356.72;6274118;20;2856594;-47
2024/02/11 05:28:39;;;;;;;;;25.00;23.50;;;;;9.81;100.00;97359.41;6308519;20;2835698;-46
2024/02/11 05:31:11;;;;;;;;;26.00;22.00;;;;;10.04;100.00;97359.03;6278308;20;2848243;-48
2024/02/11 05:33:41;;;;;;;;;35.33;32.00;;;;;9.73;100.00;97372.69;6278070;20;2862858;-46
2024/02/11 05:36:13;;;;;;;;;27.67;25.67;;;;;9.70;100.00;97367.63;6309348;20;2860750;-47
2024/02/11 05:38:42;;;;;;;;;28.67;28.00;;;;;9.62;100.00;97375.56;6310239;20;3581667;-50
2024/02/11 05:41:12;;;;;;;;;29.67;27.00;;;;;9.66;100.00;97361.72;6276070;20;3602308;-47
2024/02/11 05:43:41;;;;;;;;;20.00;20.00;;;;;9.80;100.00;97373.81;6307929;20;2832609;-46
2024/02/11 05:46:10;;;;;;;;;23.50;21.50;;;;;9.92;100.00;97361.03;6276139;20;2838815;-47
2024/02/11 05:48:39;;;;;;;;;21.00;21.00;;;;;9.63;100.00;97355.81;6274609;20;2848259;-46
2024/02/11 05:51:08;;;;;;;;;20.00;19.00;;;;;9.52;100.00;97353.31;6275910;20;2837786;-45
2024/02/11 05:53:36;;;;;;;;;19.33;17.00;;;;;9.53;100.00;97349.63;6274330;20;3567046;-46
2024/02/11 05:56:06;;;;;;;;;21.00;20.00;;;;;10.04;100.00;97359.88;6273258;20;2500327;-45
2024/02/11 05:58:34;;;;;;;;;23.00;18.00;;;;;10.14;100.00;97364.31;6273519;20;2494042;-44
2024/02/11 06:01:04;;;;;;;;;21.00;18.00;;;;;9.66;100.00;97366.22;6274911;20;2839924;-45
2024/02/11 06:03:35;;;;;;;;;18.00;17.00;;;;;9.69;100.00;97376.66;6277692;20;2829530;-46
2024/02/11 06:06:06;;;;;;;;;23.50;20.50;;;;;9.71;100.00;97372.00;6273535;20;2500319;-47
2024/02/11 06:08:35;;;;;;;;;24.50;23.00;;;;;9.86;100.00;97367.00;6277110;20;2845112;-45
2024/02/11 06:11:06;;;;;;;;;17.00;16.67;;;;;9.56;100.00;97360.06;6274659;20;3570225;-46
2024/02/11 06:13:35;;;;;;;;;17.50;17.00;;;;;9.49;100.00;97364.31;6274210;20;2830528;-46
2024/02/11 06:16:06;;;;;;;;;22.00;20.00;;;;;9.31;100.00;97373.06;6278530;20;2500322;-49
2024/02/11 06:18:34;;;;;;;;;18.00;18.00;;;;;9.45;100.00;97379.81;6274497;20;2500335;-51
2024/02/11 06:21:02;;;;;;;;;16.50;15.00;;;;;9.61;100.00;97368.50;6279453;20;2813787;-46
2024/02/11 06:23:30;;;;;;;;;21.50;19.00;;;;;9.64;100.00;97373.59;6275367;20;2500702;-46
2024/02/11 06:26:02;;;;;;;;;19.00;19.00;;;;;9.74;100.00;97379.75;6277678;20;2833647;-45
2024/02/11 06:28:34;;;;;;;;;31.00;27.00;;;;;9.70;100.00;97377.50;6277970;20;2857636;-46
2024/02/11 06:31:05;;;;;;;;;27.33;24.67;;;;;9.72;100.00;97381.72;6304439;20;2851406;-47
2024/02/11 06:33:35;;;;;;;;;30.33;28.00;;;;;9.50;100.00;97382.06;6305737;20;2862915;-48
2024/02/11 06:36:06;;;;;;;;;36.00;32.00;;;;;9.44;100.00;97376.28;6308916;20;3605611;-47
2024/02/11 06:38:37;;;;;;;;;26.00;24.33;;;;;9.54;100.00;97378.13;6277501;20;3595091;-49
2024/02/11 06:41:06;;;;;;;;;25.00;23.00;;;;;9.48;100.00;97373.31;6307733;20;3598331;-50
2024/02/11 06:43:36;;;;;;;;;32.33;27.00;;;;;9.56;100.00;97376.16;6274148;20;3603549;-47
2024/02/11 06:46:05;;;;;;;;;50.00;40.00;;;;;9.77;100.00;97371.41;6310430;20;3596157;-45
2024/02/11 06:48:34;;;;;;;;;43.00;36.00;;;;;9.75;100.00;97373.41;6275907;20;2861867;-46
2024/02/11 06:51:03;;;;;;;;;34.33;31.00;;;;;9.82;100.00;97374.50;6277378;20;3587866;-46
2024/02/11 06:53:33;;;;;;;;;29.00;27.50;;;;;9.83;100.00;97378.88;6271756;20;2842974;-49
2024/02/11 06:56:03;;;;;;;;;31.00;26.33;;;;;9.93;100.00;97369.97;6276200;20;3614854;-46
2024/02/11 06:58:32;;;;;;;;;25.00;24.50;;;;;9.86;100.00;97375.88;6304120;20;2843051;-48
2024/02/11 07:01:01;;;;;;;;;22.50;20.50;;;;;9.89;100.00;97372.06;6275520;20;2834685;-46
2024/02/11 07:03:30;;;;;;;;;22.00;20.00;;;;;10.00;100.00;97371.88;6273611;20;2829451;-50
2024/02/11 07:06:00;;;;;;;;;22.50;20.00;;;;;9.83;100.00;97381.53;6276209;20;2836748;-50
2024/02/11 07:08:29;;;;;;;;;23.50;20.00;;;;;9.91;100.00;97374.63;6276932;20;2843088;-46
2024/02/11 07:10:58;;;;;;;;;27.00;24.00;;;;;10.06;100.00;97379.34;6275527;20;2848187;-46
2024/02/11 07:13:26;;;;;;;;;27.00;25.50;;;;;10.15;100.00;97376.75;6272796;20;2846171;-46
2024/02/11 07:15:59;;;;;;;;;70.33;54.33;;;;;9.73;100.00;97367.34;6273255;20;3612744;-45
2024/02/11 07:18:28;;;;;;;;;66.00;53.33;;;;;10.13;100.00;97379.56;6304229;20;2863968;-47
2024/02/11 07:20:58;;;;;;;;;22.00;19.50;;;;;9.95;100.00;97382.19;6305532;20;2824366;-46
2024/02/11 07:23:28;;;;;;;;;42.33;34.00;;;;;9.81;100.00;97380.84;6276824;20;3621184;-48
2024/02/11 07:25:57;;;;;;;;;23.67;20.67;;;;;9.80;100.00;97383.69;6308246;20;3574307;-50
2024/02/11 07:28:26;;;;;;;;;25.00;22.50;;;;;9.87;100.00;97382.97;6273493;20;2859778;-45
2024/02/11 07:30:56;;;;;;;;;46.00;36.67;;;;;9.97;100.00;97376.69;6275127;20;2849437;-48
2024/02/11 07:33:25;;;;;;;;;42.00;36.00;;;;;10.24;100.00;97378.53;6308264;20;3613834;-51
2024/02/11 07:35:54;;;;;;;;;26.00;23.00;;;;;9.96;100.00;97383.06;6276757;20;2850350;-48
2024/02/11 07:38:25;;;;;;;;;43.67;32.67;;;;;10.29;100.00;97385.19;6274327;20;3629448;-49
2024/02/11 07:40:55;;;;;;;;;57.00;45.00;;;;;10.25;100.00;97386.44;6307388;20;2866016;-47
2024/02/11 07:43:25;;;;;;;;;25.00;25.00;;;;;10.39;100.00;97386.97;6308567;20;2727398;-48
2024/02/11 07:45:57;;;;;;;;;49.33;38.67;;;;;10.56;100.00;97386.16;6275679;20;2870270;-48
2024/02/11 07:48:27;;;;;;;;;31.00;26.00;;;;;10.48;100.00;97383.41;6305592;20;3609683;-47
2024/02/11 07:50:58;;;;;;;;;31.33;25.67;;;;;10.59;100.00;97395.75;6306065;20;2862901;-45
2024/02/11 07:53:28;;;;;;;;;35.67;29.00;;;;;10.25;100.00;97393.66;6305591;20;3610763;-46
2024/02/11 07:55:57;;;;;;;;;29.67;24.67;;;;;10.49;100.00;97385.91;6310001;20;3610817;-46
2024/02/11 07:58:26;;;;;;;;;35.00;28.00;;;;;10.47;100.00;97397.78;6276642;20;3620164;-45
2024/02/11 08:00:55;;;;;;;;;41.67;33.00;;;;;10.09;100.00;97388.94;6274217;20;3611771;-46
2024/02/11 08:03:24;;;;;;;;;45.67;35.00;;;;;10.42;100.00;97389.34;6281237;20;3614969;-48
2024/02/11 08:05:53;;;;;;;;;30.00;29.00;;;;;10.23;100.00;97385.75;6280230;20;2850311;-48
2024/02/11 08:08:22;;;;;;;;;46.00;37.00;;;;;10.11;100.00;97381.59;6281137;20;2860054;-44
2024/02/11 08:10:52;;;;;;;;;36.33;32.33;;;;;10.48;100.00;97389.59;6313361;20;3589859;-47
2024/02/11 08:13:22;;;;;;;;;64.33;51.00;;;;;10.49;100.00;97387.75;6277470;20;3615843;-45
2024/02/11 08:15:51;;;;;;;;;60.67;47.00;;;;;10.47;100.00;97381.69;6308984;20;3627349;-46
2024/02/11 08:18:21;;;;;;;;;50.33;39.67;;;;;10.19;100.00;97384.38;6309263;20;2847151;-46
2024/02/11 08:20:51;;;;;;;;;47.33;38.00;;;;;10.49;100.00;97388.59;6307326;20;2866003;-45
2024/02/11 08:23:20;;;;;;;;;46.00;39.33;;;;;10.43;100.00;97383.00;6312003;20;3599318;-47
2024/02/11 08:25:50;;;;;;;;;51.00;40.00;;;;;10.46;100.00;97394.25;6277767;20;2860787;-46
2024/02/11 08:28:19;;;;;;;;;65.50;51.00;;;;;10.22;100.00;97383.22;6281969;20;2744030;-47
2024/02/11 08:30:48;;;;;;;;;70.67;55.00;;;;;10.16;100.00;97384.63;6312944;20;3625372;-46
2024/02/11 08:33:18;;;;;;;;;68.67;53.00;;;;;10.27;100.00;97376.44;6277904;20;2861199;-47
2024/02/11 08:35:47;;;;;;;;;88.50;77.00;;;;;10.51;100.00;97377.72;6314868;20;4430493;-47
2024/02/11 08:38:17;;;;;;;;;77.75;65.00;;;;;10.63;100.00;97376.50;6312290;20;4427509;-47
2024/02/11 08:40:47;;;;;;;;;49.00;39.67;;;;;10.60;100.00;97390.22;6310809;20;2854566;-46
2024/02/11 08:43:19;;;;;;;;;56.33;44.33;;;;;10.63;100.00;97378.34;6311266;20;3622185;-49
2024/02/11 08:45:48;;;;;;;;;48.00;39.00;;;;;10.63;100.00;97376.50;6310824;20;2853436;-46
2024/02/11 08:48:18;;;;;;;;;59.00;49.00;;;;;10.60;100.00;97368.75;6279791;20;2818077;-46
2024/02/11 08:50:47;;;;;;;;;45.50;36.50;;;;;10.47;100.00;97368.28;6279978;20;2843112;-46
2024/02/11 08:53:21;;;;;;;;;35.00;30.00;;;;;10.69;100.00;97381.28;6281384;20;3594098;-46
2024/02/11 08:55:52;;;;;;;;;36.33;32.67;;;;;10.70;100.00;97376.75;6277772;20;3611825;-46
2024/02/11 08:58:21;;;;;;;;;40.67;35.00;;;;;10.70;100.00;97372.22;6314811;20;3601301;-46
2024/02/11 09:00:51;;;;;;;;;65.67;51.33;;;;;10.50;100.00;97378.69;6278315;20;3619035;-46
2024/02/11 09:03:21;;;;;;;;;52.00;44.33;;;;;10.51;100.00;97378.56;6310500;20;2857632;-50
2024/02/11 09:05:51;;;;;;;;;45.00;35.67;;;;;10.36;100.00;97380.06;6311919;20;2853469;-50
2024/02/11 09:08:24;;;;;;;;;43.00;34.67;;;;;10.55;100.00;97371.03;6312048;20;3607551;-47
2024/02/11 09:10:54;;;;;;;;;24.67;22.00;;;;;10.35;100.00;97373.03;6307879;20;3574241;-51
2024/02/11 09:13:22;;;;;;;;;33.67;29.67;;;;;10.79;100.00;97380.34;6311744;20;3604452;-52
2024/02/11 09:15:52;;;;;;;;;41.50;34.00;;;;;10.59;100.00;97393.91;6277854;20;2860917;-54
2024/02/11 09:18:22;;;;;;;;;28.00;26.00;;;;;10.68;100.00;97394.84;6278924;20;2854531;-54
2024/02/11 09:20:50;;;;;;;;;26.00;22.67;;;;;10.32;100.00;97387.56;6314218;20;3586719;-51
2024/02/11 09:23:19;;;;;;;;;22.50;20.00;;;;;10.31;100.00;97393.91;6277927;20;2833704;-52
2024/02/11 09:25:48;;;;;;;;;28.00;23.50;;;;;10.73;100.00;97403.28;6280049;20;2849421;-54
2024/02/11 09:28:19;;;;;;;;;28.67;25.33;;;;;10.83;100.00;97396.00;6279629;20;2867093;-49
2024/02/11 09:30:48;;;;;;;;;25.00;23.00;;;;;10.59;100.00;97396.59;6309356;20;2852439;-55
2024/02/11 09:33:17;;;;;;;;;20.50;18.00;;;;;10.64;100.00;97393.47;6279210;20;2500452;-55
2024/02/11 09:35:47;;;;;;;;;25.00;25.00;;;;;10.68;100.00;97398.34;6279798;20;2860790;-53
2024/02/11 09:38:16;;;;;;;;;30.50;30.00;;;;;10.69;100.00;97392.00;6308585;20;2844118;-53
2024/02/11 09:40:44;;;;;;;;;21.00;19.00;;;;;10.48;100.00;97388.75;6267118;20;2498245;-52
2024/02/11 09:43:16;;;;;;;;;30.67;28.00;;;;;11.19;100.00;97401.38;6276518;20;3602328;-51
2024/02/11 09:45:47;;;;;;;;;29.67;28.67;;;;;11.00;100.00;97407.72;6311466;20;3592953;-49
2024/02/11 09:48:18;;;;;;;;;27.00;23.33;;;;;11.34;100.00;97412.41;6280489;20;2862873;-51
2024/02/11 09:50:47;;;;;;;;;25.50;22.50;;;;;11.07;100.00;97411.50;6308448;20;2834690;-50
2024/02/11 09:53:17;;;;;;;;;34.33;30.00;;;;;10.94;100.00;97405.66;6277609;20;3603579;-49
2024/02/11 09:55:46;;;;;;;;;35.33;32.00;;;;;11.00;100.00;97415.78;6306534;20;3598325;-54
2024/02/11 09:58:16;;;;;;;;;31.00;29.33;;;;;11.19;100.00;97417.50;6278186;20;2843246;-51
2024/02/11 10:00:46;;;;;;;;;28.67;24.00;;;;;11.23;100.00;97412.66;6308499;20;3600362;-51
2024/02/11 10:03:19;;;;;;;;;25.67;24.67;;;;;11.52;100.00;97415.91;6278804;20;2852482;-52
2024/02/11 10:05:51;;;;;;;;;31.33;27.00;;;;;11.22;100.00;97419.88;6308977;20;3591986;-50
2024/02/11 10:08:21;;;;;;;;;24.33;21.33;;;;;11.72;100.00;97421.09;6275915;20;2846218;-51
2024/02/11 10:10:51;;;;;;;;;25.00;23.00;;;;;11.57;100.00;97418.13;6309927;20;3584644;-52
2024/02/11 10:13:21;;;;;;;;;24.50;23.00;;;;;11.87;100.00;97427.59;6274907;20;2850432;-53
2024/02/11 10:15:51;;;;;;;;;28.67;25.67;;;;;11.71;100.00;97427.47;6280583;20;3595053;-53
2024/02/11 10:18:20;;;;;;;;;32.00;28.50;;;;;11.56;100.00;97424.50;6278436;20;2843121;-52
2024/02/11 10:20:52;;;;;;;;;24.00;19.50;;;;;11.64;100.00;97420.03;6275947;20;2853411;-52
2024/02/11 10:23:24;;;;;;;;;27.67;26.00;;;;;12.10;100.00;97429.75;6279286;20;3591982;-52
2024/02/11 10:25:54;;;;;;;;;23.33;22.33;;;;;12.12;100.00;97428.59;6276715;20;2844123;-52
2024/02/11 10:28:23;;;;;;;;;21.00;16.00;;;;;12.22;100.00;97423.94;6308243;20;2835724;-50
2024/02/11 10:30:52;;;;;;;;;25.00;21.00;;;;;12.04;100.00;97425.88;6276638;20;2840093;-51
2024/02/11 10:33:21;;;;;;;;;24.00;23.00;;;;;12.15;100.00;97422.06;6274200;20;2836878;-52
2024/02/11 10:35:57;;;;;;;;;25.00;22.00;;;;;12.24;100.00;97415.69;6275482;20;3600647;-53
2024/02/11 10:38:27;;;;;;;;;26.00;25.00;;;;;12.18;100.00;97416.34;6309423;20;3610809;-47
2024/02/11 10:40:58;;;;;;;;;27.67;26.00;;;;;13.05;100.00;97414.28;6274351;20;3610693;-52
2024/02/11 10:43:32;;;;;;;;;24.50;22.50;;;;;12.25;100.00;97412.03;6304956;20;2846188;-52
2024/02/11 10:46:02;;;;;;;;;29.00;28.33;;;;;11.89;100.00;97403.25;6274274;20;3602408;-47
2024/02/11 10:48:32;;;;;;;;;26.67;24.67;;;;;12.03;100.00;97402.66;6308769;20;3600291;-49
2024/02/11 10:51:12;;;;;;;;;27.33;25.00;;;;;11.82;100.00;97400.31;6277371;20;3602341;-50
2024/02/11 10:53:48;;;;;;;;;24.67;22.00;;;;;12.16;100.00;97391.44;6304942;20;3585673;-49
2024/02/11 10:56:18;;;;;;;;;26.67;24.00;;;;;11.99;100.00;97391.38;6272764;20;3581727;-49
2024/02/11 10:59:10;;;;;;;;;27.67;25.00;;;;;11.98;100.00;97397.78;6305886;20;3583674;-50
2024/02/11 11:01:40;;;;;;;;;49.00;41.33;;;;;11.96;100.00;97393.56;6269852;20;2853525;-49
2024/02/11 11:04:20;;;;;;;;;46.00;37.33;;;;;12.34;100.00;97396.75;6307328;20;2858714;-50
2024/02/11 11:06:52;;;;;;;;;38.33;33.00;;;;;12.42;100.00;97403.00;6307590;20;3615904;-49
2024/02/11 11:09:22;;;;;;;;;28.67;28.00;;;;;12.49;100.00;97395.97;6308331;20;3606599;-49